Time;durP1;ratioP1;P1;durP2;ratioP2;P2;SDS_P1;SDS_P2;PMS_P1;PMS_P2;Temp;Humidity;BMP_temperature;BMP_pressure;BME280_temperature;BME280_humidity;BME280_pressure;Samples;Min_cycle;Max_cycle;Signal;HPM_P1;HPM_P2
2021/12/29 00:01:33;;;;;;;25.30;16.50;;;3.50;99.90;;;;;;5048685;28;20511;-74
2021/12/29 00:03:58;;;;;;;20.57;16.00;;;3.50;99.90;;;;;;5058438;28;20182;-72
2021/12/29 00:06:24;;;;;;;23.97;16.13;;;3.50;99.90;;;;;;5063883;28;20219;-72
2021/12/29 00:08:49;;;;;;;23.73;17.10;;;3.60;99.90;;;;;;5060167;28;20219;-70
2021/12/29 00:11:15;;;;;;;22.57;16.50;;;3.60;99.90;;;;;;5064782;28;20193;-71
2021/12/29 00:13:40;;;;;;;23.07;16.07;;;3.60;99.90;;;;;;5059021;28;20187;-70
2021/12/29 00:16:06;;;;;;;22.87;17.10;;;3.60;99.90;;;;;;5067358;28;20218;-71
2021/12/29 00:18:34;;;;;;;21.43;15.03;;;3.70;99.90;;;;;;5064327;28;20209;-70
2021/12/29 00:21:01;;;;;;;21.93;16.17;;;3.70;99.90;;;;;;5065112;28;20259;-71
2021/12/29 00:23:27;;;;;;;20.60;16.63;;;3.70;99.90;;;;;;5055997;28;20250;-72
2021/12/29 00:25:53;;;;;;;22.80;16.13;;;3.70;99.90;;;;;;5066914;28;20625;-72
2021/12/29 00:28:19;;;;;;;21.23;15.43;;;3.60;99.90;;;;;;5057755;28;20206;-72
2021/12/29 00:30:45;;;;;;;20.20;14.03;;;3.70;99.90;;;;;;5066545;28;20313;-73
2021/12/29 00:33:11;;;;;;;21.50;15.63;;;3.60;99.90;;;;;;5050872;28;20203;-73
2021/12/29 00:35:38;;;;;;;20.80;15.93;;;3.60;99.90;;;;;;5066847;28;20220;-72
2021/12/29 00:38:09;;;;;;;26.07;16.83;;;3.60;99.90;;;;;;5055429;28;20499;-73
2021/12/29 00:40:36;;;;;;;21.40;15.67;;;3.60;99.90;;;;;;5048830;28;20257;-72
2021/12/29 00:43:05;;;;;;;20.60;15.73;;;3.60;99.90;;;;;;5060180;28;20202;-71
2021/12/29 00:45:33;;;;;;;25.53;16.27;;;3.70;99.90;;;;;;5066763;28;20920;-71
2021/12/29 00:47:58;;;;;;;23.00;15.20;;;3.70;99.90;;;;;;5052528;28;20203;-71
2021/12/29 00:50:24;;;;;;;21.50;16.40;;;3.70;99.90;;;;;;5067001;28;20835;-70
2021/12/29 00:52:49;;;;;;;20.57;15.40;;;3.70;99.90;;;;;;5051432;28;20203;-72
2021/12/29 00:55:17;;;;;;;21.23;14.90;;;3.70;99.90;;;;;;5063192;28;20182;-72
2021/12/29 00:57:43;;;;;;;20.90;14.87;;;3.70;99.90;;;;;;5053279;28;20706;-71
2021/12/29 01:00:13;;;;;;;22.43;15.57;;;3.70;99.90;;;;;;5065963;28;20194;-72
2021/12/29 01:02:39;;;;;;;23.70;15.83;;;3.70;99.90;;;;;;5060082;28;20189;-72
2021/12/29 01:05:07;;;;;;;21.77;15.70;;;3.70;99.90;;;;;;5077194;28;20224;-71
2021/12/29 01:07:32;;;;;;;24.93;15.00;;;3.60;99.90;;;;;;5073156;28;20227;-61
2021/12/29 01:09:59;;;;;;;19.23;15.57;;;3.60;99.90;;;;;;5076506;28;20190;-62
2021/12/29 01:12:25;;;;;;;18.93;14.57;;;3.60;99.90;;;;;;5072998;28;20201;-62
2021/12/29 01:14:54;;;;;;;19.83;14.50;;;3.60;99.90;;;;;;5073843;28;20280;-64
2021/12/29 01:17:21;;;;;;;19.67;14.43;;;3.70;99.90;;;;;;5073401;28;20708;-64
2021/12/29 01:19:49;;;;;;;18.50;14.00;;;3.70;99.90;;;;;;5073899;28;20673;-64
2021/12/29 01:22:15;;;;;;;18.80;14.03;;;3.70;99.90;;;;;;5074640;28;20202;-64
2021/12/29 01:24:43;;;;;;;24.67;17.10;;;3.70;99.90;;;;;;5076280;28;20192;-63
2021/12/29 01:27:08;;;;;;;19.27;14.07;;;3.70;99.90;;;;;;5071886;28;20198;-64
2021/12/29 01:29:34;;;;;;;19.53;15.43;;;3.70;99.90;;;;;;5074757;28;20201;-64
2021/12/29 01:32:00;;;;;;;21.40;15.97;;;3.60;99.90;;;;;;5071051;28;20222;-64
2021/12/29 01:34:25;;;;;;;19.47;14.57;;;3.60;99.90;;;;;;5071625;28;20182;-66
2021/12/29 01:36:52;;;;;;;21.17;16.03;;;3.60;99.90;;;;;;5073117;28;20248;-63
2021/12/29 01:39:19;;;;;;;25.13;16.07;;;3.60;99.90;;;;;;5073840;28;20185;-63
2021/12/29 01:41:47;;;;;;;23.03;15.00;;;3.60;99.90;;;;;;5070764;28;20240;-65
2021/12/29 01:44:13;;;;;;;20.33;15.20;;;3.60;99.90;;;;;;5075770;28;20231;-64
2021/12/29 01:46:40;;;;;;;22.47;15.90;;;3.70;99.90;;;;;;5070039;28;20214;-64
2021/12/29 01:49:07;;;;;;;23.27;14.73;;;3.70;99.90;;;;;;5074446;28;20542;-66
2021/12/29 01:51:32;;;;;;;23.17;15.93;;;3.80;99.90;;;;;;5069294;28;20649;-64
2021/12/29 01:54:16;;;;;;;20.60;14.93;;;3.90;99.90;;;;;;5075339;28;20640;-66
2021/12/29 01:56:45;;;;;;;20.47;15.17;;;3.90;99.90;;;;;;5071959;28;20646;-61
2021/12/29 01:59:15;;;;;;;19.43;14.57;;;4.00;99.90;;;;;;5071984;28;20162;-61
2021/12/29 02:01:41;;;;;;;21.50;16.60;;;4.00;99.90;;;;;;5071052;28;20600;-61
2021/12/29 02:04:06;;;;;;;19.40;15.00;;;3.90;99.90;;;;;;5074040;28;20165;-61
2021/12/29 02:06:32;;;;;;;20.30;15.50;;;3.80;99.90;;;;;;5071750;28;20232;-62
2021/12/29 02:08:58;;;;;;;22.00;14.90;;;3.80;99.90;;;;;;5075433;28;20209;-62
2021/12/29 02:11:30;;;;;;;18.87;14.53;;;3.80;99.90;;;;;;5071415;28;20228;-63
2021/12/29 02:14:01;;;;;;;18.67;14.23;;;3.90;99.90;;;;;;5073353;28;20178;-62
2021/12/29 02:16:27;;;;;;;20.87;14.33;;;4.00;99.90;;;;;;5071619;28;20202;-63
2021/12/29 02:18:55;;;;;;;18.83;14.40;;;4.00;99.90;;;;;;5073629;28;20181;-63
2021/12/29 02:21:23;;;;;;;15.23;12.67;;;4.00;99.90;;;;;;5072187;28;20660;-64
2021/12/29 02:26:31;;;;;;;16.67;13.33;;;4.10;99.90;;;;;;5071098;28;20273;-64
2021/12/29 02:29:00;;;;;;;20.70;14.50;;;4.10;99.90;;;;;;5066879;28;20189;-64
2021/12/29 02:31:26;;;;;;;20.30;15.03;;;4.20;99.90;;;;;;5068798;28;20925;-63
2021/12/29 02:33:52;;;;;;;19.50;13.53;;;4.30;99.90;;;;;;5074324;28;20185;-63
2021/12/29 02:36:19;;;;;;;19.10;13.30;;;4.30;99.90;;;;;;5071350;28;20551;-64
2021/12/29 02:38:50;;;;;;;18.37;13.93;;;4.40;99.90;;;;;;5074772;28;20182;-63
2021/12/29 02:41:16;;;;;;;19.80;14.27;;;4.30;99.90;;;;;;5072414;28;20186;-64
2021/12/29 02:43:43;;;;;;;17.47;14.17;;;4.20;99.90;;;;;;5076007;28;20186;-63
2021/12/29 02:46:12;;;;;;;17.70;14.13;;;4.10;99.90;;;;;;5079589;28;20198;-64
2021/12/29 02:48:42;;;;;;;17.07;14.27;;;4.10;99.90;;;;;;5078436;28;20667;-64
2021/12/29 02:51:08;;;;;;;21.93;14.53;;;4.10;99.90;;;;;;5075899;28;20517;-64
2021/12/29 02:53:35;;;;;;;17.70;14.00;;;4.10;99.90;;;;;;5077892;28;20301;-65
2021/12/29 02:56:02;;;;;;;20.53;14.47;;;4.00;99.90;;;;;;5077066;28;20198;-64
2021/12/29 02:58:28;;;;;;;20.23;15.10;;;4.10;99.90;;;;;;5076526;28;20208;-64
2021/12/29 03:00:55;;;;;;;15.93;12.90;;;4.10;99.90;;;;;;5076612;28;20527;-60
2021/12/29 03:03:24;;;;;;;18.73;12.80;;;4.10;99.90;;;;;;5074924;28;20198;-61
2021/12/29 03:05:50;;;;;;;18.97;13.93;;;4.00;99.90;;;;;;5078250;28;20189;-62
2021/12/29 03:08:18;;;;;;;19.37;13.27;;;4.10;99.90;;;;;;5074487;28;20205;-62
2021/12/29 03:10:45;;;;;;;17.13;13.13;;;4.10;99.90;;;;;;5078570;28;20198;-61
2021/12/29 03:13:10;;;;;;;16.57;13.37;;;4.10;99.90;;;;;;5075131;28;20554;-62
2021/12/29 03:15:37;;;;;;;19.57;13.97;;;4.10;99.90;;;;;;5077327;28;20784;-62
2021/12/29 03:18:04;;;;;;;16.83;13.33;;;4.10;99.90;;;;;;5077930;28;20201;-62
2021/12/29 03:20:30;;;;;;;19.67;14.07;;;4.10;99.90;;;;;;5077629;28;20190;-63
2021/12/29 03:22:56;;;;;;;18.80;13.83;;;4.10;99.90;;;;;;5077071;28;20624;-63
2021/12/29 03:25:22;;;;;;;20.60;14.33;;;4.10;99.90;;;;;;5076530;28;20184;-63
2021/12/29 03:27:48;;;;;;;16.37;13.53;;;4.20;99.90;;;;;;5075473;28;20230;-63
2021/12/29 03:30:14;;;;;;;17.80;13.03;;;4.10;99.90;;;;;;5076423;28;20216;-63
2021/12/29 03:32:49;;;;;;;17.93;13.17;;;4.10;99.90;;;;;;5073492;28;20577;-62
2021/12/29 03:35:15;;;;;;;14.30;11.90;;;4.10;99.90;;;;;;5077037;28;20264;-62
2021/12/29 03:37:41;;;;;;;15.17;11.23;;;4.10;99.90;;;;;;5076425;28;20700;-62
2021/12/29 03:40:07;;;;;;;14.87;11.67;;;4.20;99.90;;;;;;5077434;28;20201;-63
2021/12/29 03:42:33;;;;;;;14.10;10.70;;;4.10;99.90;;;;;;5060027;28;20520;-63
2021/12/29 03:44:59;;;;;;;18.20;12.87;;;4.00;99.90;;;;;;5061212;28;20182;-63
2021/12/29 03:47:24;;;;;;;17.23;10.87;;;3.90;99.90;;;;;;5066003;28;20603;-63
2021/12/29 03:49:50;;;;;;;13.77;10.50;;;4.00;99.90;;;;;;5076984;28;20185;-65
2021/12/29 03:52:16;;;;;;;13.30;10.83;;;4.10;99.90;;;;;;5077188;28;20244;-64
2021/12/29 03:54:41;;;;;;;14.63;10.10;;;3.90;99.90;;;;;;5077568;28;20227;-62
2021/12/29 03:57:07;;;;;;;14.57;10.27;;;3.80;99.90;;;;;;5072525;28;20692;-62
2021/12/29 03:59:32;;;;;;;17.13;11.43;;;3.70;99.90;;;;;;5077062;28;20166;-63
2021/12/29 04:01:59;;;;;;;14.27;11.07;;;3.60;99.90;;;;;;5072686;28;20254;-64
2021/12/29 04:04:24;;;;;;;15.60;11.63;;;3.60;99.90;;;;;;5077508;28;20170;-62
2021/12/29 04:06:50;;;;;;;13.67;10.87;;;3.60;99.90;;;;;;5059281;28;20198;-62
2021/12/29 04:09:16;;;;;;;17.10;12.80;;;3.70;99.90;;;;;;5056236;28;20267;-63
2021/12/29 04:11:42;;;;;;;15.97;11.73;;;3.80;99.90;;;;;;5074796;28;20231;-62
2021/12/29 04:14:07;;;;;;;15.93;11.10;;;3.80;99.90;;;;;;5075489;28;20221;-63
2021/12/29 04:16:37;;;;;;;13.67;10.77;;;3.90;99.90;;;;;;5077630;28;20201;-63
2021/12/29 04:19:06;;;;;;;13.00;9.50;;;4.00;99.90;;;;;;5076822;28;20255;-63
2021/12/29 04:21:37;;;;;;;16.67;11.00;;;4.10;99.90;;;;;;5073246;28;20209;-63
2021/12/29 04:24:04;;;;;;;15.80;11.60;;;4.30;99.90;;;;;;5073374;28;20662;-63
2021/12/29 04:26:33;;;;;;;11.27;9.33;;;4.40;99.90;;;;;;5074560;28;20652;-63
2021/12/29 04:28:58;;;;;;;11.43;8.40;;;4.60;99.90;;;;;;5067328;28;20198;-63
2021/12/29 04:31:24;;;;;;;14.77;8.67;;;4.70;99.90;;;;;;5066439;28;20229;-63
2021/12/29 04:33:49;;;;;;;12.53;8.40;;;4.50;99.90;;;;;;5060060;28;20242;-63
2021/12/29 04:36:16;;;;;;;14.43;8.17;;;4.50;99.90;;;;;;5066198;28;20240;-62
2021/12/29 04:38:41;;;;;;;9.77;7.40;;;4.50;99.90;;;;;;5055577;28;20284;-63
2021/12/29 04:41:07;;;;;;;10.47;8.03;;;4.70;99.90;;;;;;5067652;28;20281;-62
2021/12/29 04:43:32;;;;;;;13.23;7.67;;;4.90;99.90;;;;;;5050733;28;20231;-63
2021/12/29 04:45:58;;;;;;;11.57;8.23;;;5.00;99.90;;;;;;5060722;28;20241;-64
2021/12/29 04:48:25;;;;;;;9.77;7.20;;;5.00;99.90;;;;;;5049539;28;20241;-63
2021/12/29 04:50:52;;;;;;;10.00;7.07;;;5.00;99.90;;;;;;5065865;28;20233;-63
2021/12/29 04:53:20;;;;;;;10.97;7.93;;;5.00;99.90;;;;;;5050969;28;20230;-62
2021/12/29 04:55:49;;;;;;;12.57;7.60;;;4.90;99.90;;;;;;5064947;28;20660;-62
2021/12/29 04:58:16;;;;;;;9.20;7.17;;;4.90;99.90;;;;;;5054170;28;20206;-62
2021/12/29 05:00:42;;;;;;;14.60;8.50;;;5.00;99.90;;;;;;5065688;28;20240;-62
2021/12/29 05:03:08;;;;;;;12.80;8.27;;;5.10;99.90;;;;;;5052394;28;20256;-62
2021/12/29 05:10:44;;;;;;;9.97;8.50;;;5.20;99.90;;;;;;5046092;28;20210;-63
2021/12/29 05:13:09;;;;;;;9.90;7.73;;;5.20;99.90;;;;;;5053461;28;20740;-63
2021/12/29 05:15:35;;;;;;;16.97;8.13;;;5.30;99.90;;;;;;5065337;28;20778;-63
2021/12/29 05:18:01;;;;;;;12.53;8.10;;;5.30;99.90;;;;;;5063332;28;20214;-63
2021/12/29 05:20:28;;;;;;;11.20;7.77;;;5.30;99.90;;;;;;5064371;28;20242;-63
2021/12/29 05:22:58;;;;;;;10.87;7.50;;;5.30;99.90;;;;;;5053135;28;20681;-63
2021/12/29 05:25:24;;;;;;;8.80;7.43;;;5.30;99.90;;;;;;5064942;28;20683;-63
2021/12/29 05:27:50;;;;;;;9.90;8.03;;;5.30;99.90;;;;;;5063014;28;20213;-62
2021/12/29 05:30:17;;;;;;;11.87;7.77;;;5.30;99.90;;;;;;5064762;28;20732;-63
2021/12/29 05:32:43;;;;;;;11.43;7.40;;;5.40;99.90;;;;;;5062986;28;20235;-63
2021/12/29 05:35:09;;;;;;;12.47;7.93;;;5.40;99.90;;;;;;5065295;28;20260;-63
2021/12/29 05:37:35;;;;;;;12.37;8.50;;;5.50;99.90;;;;;;5055666;28;20222;-63
2021/12/29 05:40:01;;;;;;;13.87;8.97;;;5.40;99.90;;;;;;5045224;28;20178;-62
2021/12/29 05:42:26;;;;;;;11.40;8.00;;;5.40;99.90;;;;;;5058348;28;20206;-63
2021/12/29 05:44:52;;;;;;;14.43;7.37;;;5.50;99.90;;;;;;5053537;28;20257;-62
2021/12/29 05:47:17;;;;;;;13.27;8.10;;;5.50;99.90;;;;;;5062629;28;20198;-63
2021/12/29 05:49:43;;;;;;;13.67;8.20;;;5.40;99.90;;;;;;5049655;28;20725;-62
2021/12/29 05:52:08;;;;;;;9.67;7.53;;;5.30;99.90;;;;;;5063635;28;20542;-63
2021/12/29 05:54:34;;;;;;;14.97;8.20;;;5.30;99.90;;;;;;5057256;28;20217;-63
2021/12/29 05:56:59;;;;;;;10.60;6.63;;;5.30;99.90;;;;;;5063073;28;20639;-63
2021/12/29 05:59:25;;;;;;;11.97;8.70;;;5.30;99.90;;;;;;5053441;28;20733;-63
2021/12/29 06:01:50;;;;;;;14.27;8.57;;;5.30;99.90;;;;;;5062379;28;20182;-63
2021/12/29 06:04:16;;;;;;;14.40;8.07;;;5.40;99.90;;;;;;5052520;28;20265;-63
2021/12/29 06:06:41;;;;;;;11.60;7.90;;;5.50;99.90;;;;;;5065500;28;20271;-63
2021/12/29 06:09:07;;;;;;;12.47;8.10;;;5.50;99.90;;;;;;5053638;28;20233;-63
2021/12/29 06:11:33;;;;;;;12.63;8.20;;;5.40;99.90;;;;;;5065016;28;20200;-62
2021/12/29 06:13:59;;;;;;;13.67;8.40;;;5.20;99.90;;;;;;5051619;28;20202;-62
2021/12/29 06:16:24;;;;;;;9.53;7.70;;;5.30;99.90;;;;;;5056133;28;20211;-63
2021/12/29 06:18:49;;;;;;;12.47;8.77;;;5.30;99.90;;;;;;5046863;28;20198;-62
2021/12/29 06:21:16;;;;;;;14.77;8.87;;;5.40;99.90;;;;;;5065119;28;20472;-62
2021/12/29 06:23:44;;;;;;;12.67;7.87;;;5.40;99.90;;;;;;5054409;28;20198;-63
2021/12/29 06:26:10;;;;;;;14.13;8.20;;;5.40;99.90;;;;;;5054521;28;20623;-63
2021/12/29 06:28:35;;;;;;;12.07;8.10;;;5.40;99.90;;;;;;5052721;28;20219;-63
2021/12/29 06:31:01;;;;;;;15.00;9.10;;;5.40;99.90;;;;;;5064399;28;20190;-62
2021/12/29 06:33:26;;;;;;;12.70;9.67;;;5.30;99.90;;;;;;5048926;28;20207;-62
2021/12/29 06:35:52;;;;;;;13.90;8.73;;;5.20;99.90;;;;;;5063788;28;20217;-62
2021/12/29 06:38:17;;;;;;;17.87;9.53;;;5.20;99.90;;;;;;5055818;28;20217;-62
2021/12/29 06:40:43;;;;;;;17.80;8.97;;;5.20;99.90;;;;;;5064610;28;20193;-62
2021/12/29 06:43:08;;;;;;;14.40;10.27;;;5.30;99.90;;;;;;5051839;28;20220;-63
2021/12/29 06:45:34;;;;;;;16.87;9.50;;;5.30;99.90;;;;;;5065171;28;20326;-62
2021/12/29 06:47:59;;;;;;;17.53;9.87;;;5.40;99.90;;;;;;5053303;28;20199;-61
2021/12/29 06:50:25;;;;;;;14.97;9.50;;;5.40;99.90;;;;;;5064593;28;20640;-64
2021/12/29 06:52:50;;;;;;;14.10;9.07;;;5.50;99.90;;;;;;5053051;28;20217;-63
2021/12/29 06:55:16;;;;;;;15.03;8.80;;;5.50;99.90;;;;;;5063908;28;20576;-63
2021/12/29 06:57:41;;;;;;;13.50;8.73;;;5.50;99.90;;;;;;5059674;28;20910;-63
2021/12/29 07:00:08;;;;;;;13.40;9.47;;;5.40;99.90;;;;;;5066080;28;20638;-62
2021/12/29 07:02:33;;;;;;;18.10;9.40;;;5.30;99.90;;;;;;5062706;28;20366;-62
2021/12/29 07:04:59;;;;;;;14.97;8.17;;;5.30;99.90;;;;;;5051468;28;20199;-62
2021/12/29 07:07:24;;;;;;;13.00;9.47;;;5.50;99.90;;;;;;5056118;28;20199;-63
2021/12/29 07:09:50;;;;;;;14.83;9.63;;;5.50;99.90;;;;;;5056619;28;20190;-62
2021/12/29 07:12:15;;;;;;;16.20;9.77;;;5.50;99.90;;;;;;5062294;28;20578;-63
2021/12/29 07:14:41;;;;;;;15.73;9.80;;;5.60;99.90;;;;;;5064139;28;20221;-63
2021/12/29 07:17:07;;;;;;;15.93;9.87;;;5.50;99.90;;;;;;5063007;28;20206;-63
2021/12/29 07:19:32;;;;;;;16.57;9.53;;;5.50;99.90;;;;;;5061909;28;20673;-62
2021/12/29 07:22:00;;;;;;;13.37;9.67;;;5.60;99.90;;;;;;5059825;28;20186;-64
2021/12/29 07:24:26;;;;;;;18.70;10.40;;;5.40;99.90;;;;;;5056353;28;20871;-63
2021/12/29 07:26:51;;;;;;;14.97;9.10;;;5.30;99.90;;;;;;5061122;28;20285;-63
2021/12/29 07:29:17;;;;;;;15.03;9.40;;;5.20;99.90;;;;;;5056125;28;20646;-63
2021/12/29 07:31:43;;;;;;;17.63;9.77;;;5.20;99.90;;;;;;5067702;28;20194;-62
2021/12/29 07:34:08;;;;;;;15.33;9.87;;;5.10;99.90;;;;;;5060423;28;20213;-62
2021/12/29 07:36:34;;;;;;;14.13;10.40;;;5.10;99.90;;;;;;5067061;28;20213;-62
2021/12/29 07:39:00;;;;;;;18.27;9.90;;;5.10;99.90;;;;;;5054068;28;20510;-63
2021/12/29 07:41:25;;;;;;;16.70;10.03;;;5.20;99.90;;;;;;5064656;28;20639;-63
2021/12/29 07:43:51;;;;;;;16.47;10.43;;;5.20;99.90;;;;;;5055927;28;20208;-63
2021/12/29 07:46:17;;;;;;;17.03;9.70;;;5.20;99.90;;;;;;5067298;28;20718;-64
2021/12/29 07:48:43;;;;;;;15.10;9.90;;;5.40;99.90;;;;;;5065479;28;20198;-63
2021/12/29 07:51:09;;;;;;;16.90;9.73;;;5.40;99.90;;;;;;5067993;28;20988;-63
2021/12/29 07:53:37;;;;;;;14.10;10.00;;;5.40;99.90;;;;;;5052386;28;20207;-63
2021/12/29 07:56:04;;;;;;;23.10;10.00;;;5.40;99.90;;;;;;5067451;28;20233;-63
2021/12/29 07:58:31;;;;;;;14.47;9.13;;;5.30;99.90;;;;;;5056245;28;20209;-63
2021/12/29 08:00:57;;;;;;;16.33;10.20;;;5.20;99.90;;;;;;5067414;28;20271;-63
2021/12/29 08:03:22;;;;;;;15.70;9.57;;;5.20;99.90;;;;;;5056728;28;20284;-63
2021/12/29 08:05:48;;;;;;;16.00;10.37;;;5.30;99.90;;;;;;5067501;28;20197;-63
2021/12/29 08:08:13;;;;;;;14.30;10.50;;;5.30;99.90;;;;;;5057174;28;20756;-63
2021/12/29 08:10:40;;;;;;;20.87;10.83;;;5.40;99.90;;;;;;5072565;28;20196;-63
2021/12/29 08:13:06;;;;;;;14.40;10.00;;;5.50;99.90;;;;;;5068291;28;20210;-63
2021/12/29 08:15:33;;;;;;;16.93;9.90;;;5.40;99.90;;;;;;5066942;28;20221;-63
2021/12/29 08:18:01;;;;;;;15.70;9.67;;;5.50;99.90;;;;;;5065239;28;20222;-64
2021/12/29 08:20:28;;;;;;;15.00;10.67;;;5.50;99.90;;;;;;5066792;28;20198;-63
2021/12/29 08:22:54;;;;;;;17.70;10.77;;;5.50;99.90;;;;;;5055323;28;20685;-63
2021/12/29 08:25:20;;;;;;;15.50;9.97;;;5.40;99.90;;;;;;5066501;28;20604;-63
2021/12/29 08:27:47;;;;;;;17.13;10.77;;;5.50;99.90;;;;;;5065514;28;20806;-63
2021/12/29 08:30:13;;;;;;;20.60;10.23;;;5.50;99.90;;;;;;5058526;28;20566;-63
2021/12/29 08:32:39;;;;;;;17.87;9.67;;;5.40;99.90;;;;;;5062291;28;20210;-63
2021/12/29 08:35:05;;;;;;;15.57;9.73;;;5.50;99.90;;;;;;5066428;28;20608;-62
2021/12/29 08:37:31;;;;;;;15.70;9.07;;;5.50;99.90;;;;;;5065067;28;20249;-63
2021/12/29 08:39:56;;;;;;;13.67;9.07;;;5.50;99.90;;;;;;5049116;28;20687;-63
2021/12/29 08:42:23;;;;;;;16.00;10.33;;;5.40;99.90;;;;;;5060831;28;20191;-63
2021/12/29 08:44:48;;;;;;;16.07;10.97;;;5.40;99.90;;;;;;5066270;28;20676;-64
2021/12/29 08:47:14;;;;;;;15.00;10.60;;;5.40;99.90;;;;;;5051189;28;20465;-63
2021/12/29 08:49:40;;;;;;;16.13;10.27;;;5.50;99.90;;;;;;5066511;28;20214;-63
2021/12/29 08:52:06;;;;;;;16.50;10.60;;;5.60;99.90;;;;;;5055393;28;20209;-63
2021/12/29 08:54:32;;;;;;;21.20;10.43;;;5.60;99.90;;;;;;5066879;28;20198;-63
2021/12/29 08:56:57;;;;;;;13.77;9.93;;;5.70;99.90;;;;;;5050612;28;20253;-63
2021/12/29 08:59:23;;;;;;;23.00;10.63;;;5.80;99.90;;;;;;5066996;28;20229;-63
2021/12/29 09:01:48;;;;;;;15.40;10.77;;;5.80;99.90;;;;;;5058926;28;20252;-63
2021/12/29 09:04:14;;;;;;;17.60;10.13;;;5.70;99.90;;;;;;5066765;28;20552;-63
2021/12/29 09:06:39;;;;;;;14.63;9.00;;;5.60;99.90;;;;;;5054846;28;20207;-63
2021/12/29 09:09:05;;;;;;;19.23;10.37;;;5.70;99.90;;;;;;5066509;28;20662;-63
2021/12/29 09:11:31;;;;;;;18.87;10.20;;;5.70;99.90;;;;;;5054747;28;20210;-63
2021/12/29 09:13:59;;;;;;;17.33;10.77;;;5.60;99.90;;;;;;5066065;28;20633;-63
2021/12/29 09:16:25;;;;;;;18.00;10.37;;;5.70;99.90;;;;;;5064945;28;20229;-63
2021/12/29 09:18:51;;;;;;;20.10;11.33;;;5.70;99.90;;;;;;5062978;28;20202;-63
2021/12/29 09:21:18;;;;;;;16.73;10.83;;;5.70;99.90;;;;;;5064706;28;20300;-63
2021/12/29 09:23:44;;;;;;;19.57;10.33;;;5.80;99.90;;;;;;5057390;28;20229;-62
2021/12/29 09:26:12;;;;;;;15.10;9.93;;;5.80;99.90;;;;;;5063358;28;20230;-63
2021/12/29 09:28:37;;;;;;;16.97;9.73;;;5.70;99.90;;;;;;5065934;28;20198;-62
2021/12/29 09:31:03;;;;;;;20.23;10.83;;;5.80;99.90;;;;;;5056843;28;20246;-62
2021/12/29 09:33:28;;;;;;;21.40;10.87;;;5.80;99.90;;;;;;5055210;28;20194;-62
2021/12/29 09:35:59;;;;;;;16.37;10.27;;;6.00;99.90;;;;;;5063587;28;20608;-62
2021/12/29 09:38:25;;;;;;;14.93;11.17;;;6.00;99.90;;;;;;5065946;28;20192;-62
2021/12/29 09:40:51;;;;;;;18.53;12.97;;;6.00;99.90;;;;;;5057719;28;20191;-63
2021/12/29 09:43:17;;;;;;;16.03;11.30;;;6.20;99.90;;;;;;5057205;28;20736;-62
2021/12/29 09:45:45;;;;;;;19.90;10.83;;;6.10;99.90;;;;;;5061224;28;20744;-62
2021/12/29 09:48:12;;;;;;;19.13;11.47;;;6.00;99.90;;;;;;5057709;28;20274;-62
2021/12/29 09:50:39;;;;;;;17.70;11.10;;;5.90;99.90;;;;;;5064363;28;20255;-63
2021/12/29 09:53:06;;;;;;;19.80;11.00;;;5.90;99.90;;;;;;5052025;28;20214;-63
2021/12/29 09:55:32;;;;;;;15.70;10.90;;;6.00;99.90;;;;;;5061492;28;20313;-63
2021/12/29 09:58:00;;;;;;;15.37;10.60;;;6.00;99.90;;;;;;5054197;28;20210;-63
2021/12/29 10:00:30;;;;;;;19.57;11.13;;;5.90;99.90;;;;;;5062997;28;20190;-64
2021/12/29 10:03:00;;;;;;;23.37;12.10;;;5.90;99.90;;;;;;5046308;28;20175;-64
2021/12/29 10:05:27;;;;;;;18.67;11.27;;;6.10;99.90;;;;;;5061596;28;20193;-64
2021/12/29 10:08:01;;;;;;;15.73;10.33;;;6.10;99.90;;;;;;5057007;28;20552;-65
2021/12/29 10:10:27;;;;;;;15.47;10.67;;;6.10;99.90;;;;;;5063470;28;20269;-63
2021/12/29 10:12:53;;;;;;;15.73;10.73;;;6.10;99.90;;;;;;5054165;28;20194;-62
2021/12/29 10:15:18;;;;;;;20.00;12.03;;;6.10;99.90;;;;;;5062177;28;20232;-62
2021/12/29 10:17:44;;;;;;;21.63;11.93;;;6.00;99.90;;;;;;5045848;28;20219;-62
2021/12/29 10:20:11;;;;;;;19.83;12.17;;;6.00;99.90;;;;;;5064468;28;21020;-62
2021/12/29 10:22:38;;;;;;;14.63;10.73;;;6.00;99.90;;;;;;5056144;28;20230;-63
2021/12/29 10:25:07;;;;;;;16.80;12.50;;;6.00;99.90;;;;;;5063508;28;20198;-65
2021/12/29 10:27:33;;;;;;;22.10;12.33;;;6.00;99.90;;;;;;5053415;28;20248;-64
2021/12/29 10:29:58;;;;;;;17.47;12.30;;;6.10;99.90;;;;;;5064265;28;20202;-65
2021/12/29 10:32:25;;;;;;;12.87;10.50;;;6.10;99.90;;;;;;5061912;28;20202;-62
2021/12/29 10:34:54;;;;;;;18.80;12.10;;;6.10;99.90;;;;;;5064634;28;20686;-62
2021/12/29 10:37:23;;;;;;;17.17;11.00;;;6.00;99.90;;;;;;5055263;28;20309;-62
2021/12/29 10:39:52;;;;;;;27.20;13.70;;;6.00;99.90;;;;;;5064842;28;20571;-63
2021/12/29 10:42:21;;;;;;;21.17;14.37;;;6.00;99.90;;;;;;5055250;28;20233;-62
2021/12/29 10:44:58;;;;;;;19.77;12.57;;;6.20;99.90;;;;;;5064956;28;20664;-61
2021/12/29 10:47:32;;;;;;;21.30;13.27;;;6.20;99.90;;;;;;5052482;28;20233;-62
2021/12/29 10:50:13;;;;;;;19.97;13.63;;;6.10;99.90;;;;;;5049442;28;20190;-63
2021/12/29 10:52:54;;;;;;;20.10;13.43;;;6.10;99.90;;;;;;5055202;28;20288;-62
2021/12/29 10:55:21;;;;;;;17.17;13.67;;;6.00;99.90;;;;;;5044207;28;20222;-62
2021/12/29 10:58:00;;;;;;;24.97;14.57;;;6.00;99.90;;;;;;5074080;28;20210;-62
2021/12/29 11:00:25;;;;;;;24.77;12.83;;;6.00;99.90;;;;;;5071303;28;20731;-62
2021/12/29 11:02:52;;;;;;;19.50;12.63;;;6.00;99.90;;;;;;5072956;28;20194;-64
2021/12/29 11:05:18;;;;;;;22.67;14.30;;;6.00;99.90;;;;;;5073955;28;20198;-61
2021/12/29 11:07:43;;;;;;;21.60;13.40;;;6.00;99.90;;;;;;5079274;28;20194;-62
2021/12/29 11:10:10;;;;;;;19.20;12.60;;;6.00;99.90;;;;;;5077180;28;20725;-62
2021/12/29 11:12:54;;;;;;;21.00;12.53;;;6.00;99.90;;;;;;5085552;28;20198;-65
2021/12/29 11:15:27;;;;;;;20.97;14.87;;;6.10;99.90;;;;;;5072635;28;20217;-61
2021/12/29 11:17:55;;;;;;;24.73;13.97;;;6.10;99.90;;;;;;5077484;28;20245;-64
2021/12/29 11:20:28;;;;;;;24.97;14.37;;;6.20;99.90;;;;;;5072853;28;20221;-62
2021/12/29 11:23:04;;;;;;;24.60;14.93;;;6.20;99.90;;;;;;5078061;28;20194;-63
2021/12/29 11:25:31;;;;;;;23.13;13.60;;;6.40;99.90;;;;;;5074871;28;20193;-64
2021/12/29 11:27:57;;;;;;;23.23;14.13;;;6.30;99.90;;;;;;5077961;28;20201;-62
2021/12/29 11:30:23;;;;;;;24.03;14.50;;;6.30;99.90;;;;;;5074063;28;20568;-63
2021/12/29 11:32:49;;;;;;;23.83;14.80;;;6.30;99.90;;;;;;5078501;28;20398;-62
2021/12/29 11:35:22;;;;;;;21.33;13.87;;;6.30;99.90;;;;;;5068272;28;20311;-62
2021/12/29 11:37:49;;;;;;;22.97;14.97;;;6.30;99.90;;;;;;5059950;28;20210;-63
2021/12/29 11:40:19;;;;;;;25.00;15.00;;;6.30;99.90;;;;;;5059705;28;20560;-62
2021/12/29 11:42:48;;;;;;;21.00;14.10;;;6.40;99.90;;;;;;5059481;28;20166;-63
2021/12/29 11:45:15;;;;;;;23.77;14.13;;;6.40;99.90;;;;;;5059721;28;20198;-63
2021/12/29 11:47:41;;;;;;;24.10;13.90;;;6.30;99.90;;;;;;5060325;28;20298;-62
2021/12/29 11:50:09;;;;;;;23.43;15.03;;;6.20;99.90;;;;;;5064873;28;20219;-61
2021/12/29 11:52:45;;;;;;;30.53;16.07;;;6.20;99.90;;;;;;5077418;28;20219;-62
2021/12/29 11:55:18;;;;;;;26.60;16.13;;;6.30;99.90;;;;;;5071474;28;20683;-62
2021/12/29 11:57:44;;;;;;;25.57;14.80;;;6.40;99.90;;;;;;5077223;28;20202;-62
2021/12/29 12:00:18;;;;;;;27.77;16.33;;;6.30;99.90;;;;;;5074872;28;20217;-61
2021/12/29 12:02:49;;;;;;;26.00;15.33;;;6.30;99.90;;;;;;5064207;28;20511;-63
2021/12/29 12:05:22;;;;;;;27.07;17.13;;;6.20;99.90;;;;;;5058297;28;20235;-62
2021/12/29 12:07:49;;;;;;;26.33;15.57;;;6.20;99.90;;;;;;5057618;28;20278;-64
2021/12/29 12:10:35;;;;;;;25.23;14.90;;;6.20;99.90;;;;;;5058220;28;20202;-62
2021/12/29 12:13:05;;;;;;;25.27;16.40;;;6.30;99.90;;;;;;5056142;28;20182;-62
2021/12/29 12:15:36;;;;;;;27.03;16.13;;;6.20;99.90;;;;;;5056877;28;20233;-61
2021/12/29 12:18:07;;;;;;;25.00;16.10;;;6.30;99.90;;;;;;5054740;28;20264;-63
2021/12/29 12:20:45;;;;;;;27.60;17.20;;;6.20;99.90;;;;;;5060483;28;20202;-71
2021/12/29 12:23:26;;;;;;;36.77;16.27;;;6.30;99.90;;;;;;5052991;28;20201;-71
2021/12/29 12:25:54;;;;;;;24.50;15.07;;;6.30;99.90;;;;;;5057783;28;20199;-71
2021/12/29 12:28:25;;;;;;;19.40;15.33;;;6.20;99.90;;;;;;5052614;28;20229;-73
2021/12/29 12:30:53;;;;;;;30.70;16.77;;;6.10;99.90;;;;;;5055193;28;20186;-71
2021/12/29 12:33:27;;;;;;;28.83;16.47;;;6.10;99.90;;;;;;5053232;28;20194;-72
2021/12/29 12:35:55;;;;;;;32.47;16.90;;;6.10;99.90;;;;;;5054952;28;20295;-72
2021/12/29 12:38:36;;;;;;;30.50;15.80;;;6.10;99.90;;;;;;5054999;28;20210;-75
2021/12/29 12:41:06;;;;;;;25.43;15.30;;;6.30;99.90;;;;;;5064634;28;20331;-75
2021/12/29 12:43:34;;;;;;;27.83;15.23;;;6.40;99.90;;;;;;5063036;28;20697;-71
2021/12/29 12:45:59;;;;;;;24.07;15.73;;;6.30;99.90;;;;;;5065628;28;20194;-71
2021/12/29 12:48:34;;;;;;;25.57;16.63;;;6.40;99.90;;;;;;5055779;28;20613;-71